sensor_id;sensor_type;location;lat;lon;timestamp;temperature;humidity
59025;DHT22;44806;48.008;13.666;2023-04-03T00:00:11;5.50;99.90
59025;DHT22;44806;48.008;13.666;2023-04-03T00:02:38;5.40;99.90
59025;DHT22;44806;48.008;13.666;2023-04-03T00:05:07;5.50;99.90
59025;DHT22;44806;48.008;13.666;2023-04-03T00:07:34;5.50;99.90
59025;DHT22;44806;48.008;13.666;2023-04-03T00:10:00;5.40;99.90
59025;DHT22;44806;48.008;13.666;2023-04-03T00:12:27;5.40;99.90
59025;DHT22;44806;48.008;13.666;2023-04-03T00:14:54;5.40;99.90
59025;DHT22;44806;48.008;13.666;2023-04-03T00:17:23;5.30;99.90
59025;DHT22;44806;48.008;13.666;2023-04-03T00:19:49;5.40;99.90
59025;DHT22;44806;48.008;13.666;2023-04-03T00:22:16;5.50;99.90
59025;DHT22;44806;48.008;13.666;2023-04-03T00:24:43;5.50;99.90
59025;DHT22;44806;48.008;13.666;2023-04-03T00:27:10;5.50;99.90
59025;DHT22;44806;48.008;13.666;2023-04-03T00:29:37;5.50;99.90
59025;DHT22;44806;48.008;13.666;2023-04-03T00:32:04;5.50;99.90
59025;DHT22;44806;48.008;13.666;2023-04-03T00:34:32;5.50;99.90
59025;DHT22;44806;48.008;13.666;2023-04-03T00:36:59;5.50;99.90
59025;DHT22;44806;48.008;13.666;2023-04-03T00:39:26;5.60;99.90
59025;DHT22;44806;48.008;13.666;2023-04-03T00:41:53;5.60;99.90
59025;DHT22;44806;48.008;13.666;2023-04-03T00:44:22;5.50;99.90
59025;DHT22;44806;48.008;13.666;2023-04-03T00:46:49;5.50;99.90
59025;DHT22;44806;48.008;13.666;2023-04-03T00:49:16;5.50;99.90
59025;DHT22;44806;48.008;13.666;2023-04-03T00:51:44;5.50;99.90
59025;DHT22;44806;48.008;13.666;2023-04-03T00:54:11;5.60;99.90
59025;DHT22;44806;48.008;13.666;2023-04-03T00:56:39;5.50;99.90
59025;DHT22;44806;48.008;13.666;2023-04-03T00:59:09;5.50;99.90
59025;DHT22;44806;48.008;13.666;2023-04-03T01:01:37;5.60;99.90
59025;DHT22;44806;48.008;13.666;2023-04-03T01:04:05;5.50;99.90
59025;DHT22;44806;48.008;13.666;2023-04-03T01:06:35;5.50;99.90
59025;DHT22;44806;48.008;13.666;2023-04-03T01:09:05;5.40;99.90
59025;DHT22;44806;48.008;13.666;2023-04-03T01:11:32;5.40;99.90
59025;DHT22;44806;48.008;13.666;2023-04-03T01:13:59;5.40;99.90
59025;DHT22;44806;48.008;13.666;2023-04-03T01:16:27;5.30;99.90
59025;DHT22;44806;48.008;13.666;2023-04-03T01:18:56;5.20;99.90
59025;DHT22;44806;48.008;13.666;2023-04-03T01:21:46;5.30;99.90
59025;DHT22;44806;48.008;13.666;2023-04-03T01:24:30;5.30;99.90
59025;DHT22;44806;48.008;13.666;2023-04-03T01:26:58;5.30;99.90
59025;DHT22;44806;48.008;13.666;2023-04-03T01:29:25;5.30;99.90
59025;DHT22;44806;48.008;13.666;2023-04-03T01:31:56;5.40;99.90
59025;DHT22;44806;48.008;13.666;2023-04-03T01:34:23;5.40;99.90
59025;DHT22;44806;48.008;13.666;2023-04-03T01:36:51;5.40;99.90
59025;DHT22;44806;48.008;13.666;2023-04-03T01:39:18;5.40;99.90
59025;DHT22;44806;48.008;13.666;2023-04-03T01:41:46;5.40;99.90
59025;DHT22;44806;48.008;13.666;2023-04-03T01:44:13;5.40;99.90
59025;DHT22;44806;48.008;13.666;2023-04-03T01:46:40;5.40;99.90
59025;DHT22;44806;48.008;13.666;2023-04-03T01:49:09;5.40;99.90
59025;DHT22;44806;48.008;13.666;2023-04-03T01:51:36;5.40;99.90
59025;DHT22;44806;48.008;13.666;2023-04-03T01:54:03;5.40;99.90
59025;DHT22;44806;48.008;13.666;2023-04-03T01:56:30;5.40;99.90
59025;DHT22;44806;48.008;13.666;2023-04-03T01:58:57;5.20;99.90
59025;DHT22;44806;48.008;13.666;2023-04-03T02:01:24;5.30;99.90
59025;DHT22;44806;48.008;13.666;2023-04-03T02:03:51;5.30;99.90
59025;DHT22;44806;48.008;13.666;2023-04-03T02:06:19;5.30;99.90
59025;DHT22;44806;48.008;13.666;2023-04-03T02:08:46;5.30;99.90
59025;DHT22;44806;48.008;13.666;2023-04-03T02:11:13;5.40;99.90
59025;DHT22;44806;48.008;13.666;2023-04-03T02:13:40;5.50;99.90
59025;DHT22;44806;48.008;13.666;2023-04-03T02:16:08;5.50;99.90
59025;DHT22;44806;48.008;13.666;2023-04-03T02:18:36;5.50;99.90
59025;DHT22;44806;48.008;13.666;2023-04-03T02:21:03;5.50;99.90
59025;DHT22;44806;48.008;13.666;2023-04-03T02:23:32;5.50;99.90
59025;DHT22;44806;48.008;13.666;2023-04-03T02:26:04;5.40;99.90
59025;DHT22;44806;48.008;13.666;2023-04-03T02:28:32;5.50;99.90
59025;DHT22;44806;48.008;13.666;2023-04-03T02:30:59;5.50;99.90
59025;DHT22;44806;48.008;13.666;2023-04-03T02:33:26;5.50;99.90
59025;DHT22;44806;48.008;13.666;2023-04-03T02:35:53;5.40;99.90
59025;DHT22;44806;48.008;13.666;2023-04-03T02:38:20;5.50;99.90
59025;DHT22;44806;48.008;13.666;2023-04-03T02:40:49;5.40;99.90
59025;DHT22;44806;48.008;13.666;2023-04-03T02:43:16;5.40;99.90
59025;DHT22;44806;48.008;13.666;2023-04-03T02:45:43;5.50;99.90
59025;DHT22;44806;48.008;13.666;2023-04-03T02:48:10;5.40;99.90
59025;DHT22;44806;48.008;13.666;2023-04-03T02:50:37;5.40;99.90
59025;DHT22;44806;48.008;13.666;2023-04-03T02:53:04;5.40;99.90
59025;DHT22;44806;48.008;13.666;2023-04-03T02:55:31;5.30;99.90
59025;DHT22;44806;48.008;13.666;2023-04-03T02:57:59;5.30;99.90
59025;DHT22;44806;48.008;13.666;2023-04-03T03:00:26;5.30;99.90
59025;DHT22;44806;48.008;13.666;2023-04-03T03:02:53;5.30;99.90
59025;DHT22;44806;48.008;13.666;2023-04-03T03:05:20;5.30;99.90
59025;DHT22;44806;48.008;13.666;2023-04-03T03:07:47;5.20;99.90
59025;DHT22;44806;48.008;13.666;2023-04-03T03:10:14;5.10;99.90
59025;DHT22;44806;48.008;13.666;2023-04-03T03:12:41;5.10;99.90
59025;DHT22;44806;48.008;13.666;2023-04-03T03:15:10;5.10;99.90
59025;DHT22;44806;48.008;13.666;2023-04-03T03:17:37;5.10;99.90
59025;DHT22;44806;48.008;13.666;2023-04-03T03:20:05;5.10;99.90
59025;DHT22;44806;48.008;13.666;2023-04-03T03:22:33;5.20;99.90
59025;DHT22;44806;48.008;13.666;2023-04-03T03:25:00;5.20;99.90
59025;DHT22;44806;48.008;13.666;2023-04-03T03:27:27;5.20;99.90
59025;DHT22;44806;48.008;13.666;2023-04-03T03:29:55;5.10;99.90
59025;DHT22;44806;48.008;13.666;2023-04-03T03:32:23;5.10;99.90
59025;DHT22;44806;48.008;13.666;2023-04-03T03:34:51;5.20;99.90
59025;DHT22;44806;48.008;13.666;2023-04-03T03:37:18;5.20;99.90
59025;DHT22;44806;48.008;13.666;2023-04-03T03:39:44;5.10;99.90
59025;DHT22;44806;48.008;13.666;2023-04-03T03:42:11;5.10;99.90
59025;DHT22;44806;48.008;13.666;2023-04-03T03:44:38;5.20;99.90
59025;DHT22;44806;48.008;13.666;2023-04-03T03:47:05;5.10;99.90
59025;DHT22;44806;48.008;13.666;2023-04-03T03:49:36;5.10;99.90
59025;DHT22;44806;48.008;13.666;2023-04-03T03:52:03;5.20;99.90
59025;DHT22;44806;48.008;13.666;2023-04-03T03:54:30;5.20;99.90
59025;DHT22;44806;48.008;13.666;2023-04-03T03:56:57;5.20;99.90
59025;DHT22;44806;48.008;13.666;2023-04-03T03:59:24;5.20;99.90
59025;DHT22;44806;48.008;13.666;2023-04-03T04:01:51;5.20;99.90
59025;DHT22;44806;48.008;13.666;2023-04-03T04:04:18;5.20;99.90
59025;DHT22;44806;48.008;13.666;2023-04-03T04:06:47;5.20;99.90
59025;DHT22;44806;48.008;13.666;2023-04-03T04:09:13;5.10;99.90
59025;DHT22;44806;48.008;13.666;2023-04-03T04:11:40;5.00;99.90
59025;DHT22;44806;48.008;13.666;2023-04-03T04:14:08;5.00;99.90
59025;DHT22;44806;48.008;13.666;2023-04-03T04:16:36;5.00;99.90
59025;DHT22;44806;48.008;13.666;2023-04-03T04:19:03;4.90;99.90
59025;DHT22;44806;48.008;13.666;2023-04-03T04:21:29;4.90;99.90
59025;DHT22;44806;48.008;13.666;2023-04-03T04:23:58;4.90;99.90
59025;DHT22;44806;48.008;13.666;2023-04-03T04:26:25;4.90;99.90
59025;DHT22;44806;48.008;13.666;2023-04-03T04:28:51;4.90;99.90
59025;DHT22;44806;48.008;13.666;2023-04-03T04:31:18;4.90;99.90
59025;DHT22;44806;48.008;13.666;2023-04-03T04:33:45;4.90;99.90
59025;DHT22;44806;48.008;13.666;2023-04-03T04:36:12;4.90;99.90
59025;DHT22;44806;48.008;13.666;2023-04-03T04:38:40;5.00;99.90
59025;DHT22;44806;48.008;13.666;2023-04-03T04:41:08;5.00;99.90
59025;DHT22;44806;48.008;13.666;2023-04-03T04:43:35;5.00;99.90
59025;DHT22;44806;48.008;13.666;2023-04-03T04:46:03;5.00;99.90
59025;DHT22;44806;48.008;13.666;2023-04-03T04:48:30;4.90;99.90
59025;DHT22;44806;48.008;13.666;2023-04-03T04:50:57;4.80;99.90
59025;DHT22;44806;48.008;13.666;2023-04-03T04:53:24;4.80;99.90
59025;DHT22;44806;48.008;13.666;2023-04-03T04:55:51;4.80;99.90
59025;DHT22;44806;48.008;13.666;2023-04-03T04:58:20;4.90;99.90
59025;DHT22;44806;48.008;13.666;2023-04-03T05:00:47;4.90;99.90
59025;DHT22;44806;48.008;13.666;2023-04-03T05:03:14;4.90;99.90
59025;DHT22;44806;48.008;13.666;2023-04-03T05:05:41;4.80;99.90
59025;DHT22;44806;48.008;13.666;2023-04-03T05:08:08;4.80;99.90
59025;DHT22;44806;48.008;13.666;2023-04-03T05:10:35;4.80;99.90
59025;DHT22;44806;48.008;13.666;2023-04-03T05:13:02;4.90;99.90
59025;DHT22;44806;48.008;13.666;2023-04-03T05:15:30;5.00;99.90
59025;DHT22;44806;48.008;13.666;2023-04-03T05:17:57;5.00;99.90
59025;DHT22;44806;48.008;13.666;2023-04-03T05:20:24;5.00;99.90
59025;DHT22;44806;48.008;13.666;2023-04-03T05:22:50;5.00;99.90
59025;DHT22;44806;48.008;13.666;2023-04-03T05:25:17;5.00;99.90
59025;DHT22;44806;48.008;13.666;2023-04-03T05:27:44;4.90;99.90
59025;DHT22;44806;48.008;13.666;2023-04-03T05:30:12;4.90;99.90
59025;DHT22;44806;48.008;13.666;2023-04-03T05:32:41;4.90;99.90
59025;DHT22;44806;48.008;13.666;2023-04-03T05:35:08;4.90;99.90
59025;DHT22;44806;48.008;13.666;2023-04-03T05:37:36;4.90;99.90
59025;DHT22;44806;48.008;13.666;2023-04-03T05:40:04;4.90;99.90
59025;DHT22;44806;48.008;13.666;2023-04-03T05:42:31;4.80;99.90
59025;DHT22;44806;48.008;13.666;2023-04-03T05:44:58;4.80;99.90
59025;DHT22;44806;48.008;13.666;2023-04-03T05:47:25;4.90;99.90
59025;DHT22;44806;48.008;13.666;2023-04-03T05:49:53;5.00;99.90
59025;DHT22;44806;48.008;13.666;2023-04-03T05:52:22;4.90;99.90
59025;DHT22;44806;48.008;13.666;2023-04-03T05:54:49;4.90;99.90
59025;DHT22;44806;48.008;13.666;2023-04-03T05:57:16;5.00;99.90
59025;DHT22;44806;48.008;13.666;2023-04-03T05:59:43;5.00;99.90
59025;DHT22;44806;48.008;13.666;2023-04-03T06:02:12;5.00;99.90
59025;DHT22;44806;48.008;13.666;2023-04-03T06:04:40;4.80;99.90
59025;DHT22;44806;48.008;13.666;2023-04-03T06:07:10;4.80;99.90
59025;DHT22;44806;48.008;13.666;2023-04-03T06:09:38;4.80;99.90
59025;DHT22;44806;48.008;13.666;2023-04-03T06:12:05;4.80;99.90
59025;DHT22;44806;48.008;13.666;2023-04-03T06:14:31;4.80;99.90
59025;DHT22;44806;48.008;13.666;2023-04-03T06:16:59;4.70;99.90
59025;DHT22;44806;48.008;13.666;2023-04-03T06:19:27;4.70;99.90
59025;DHT22;44806;48.008;13.666;2023-04-03T06:21:54;4.70;99.90
59025;DHT22;44806;48.008;13.666;2023-04-03T06:24:22;4.80;99.90
59025;DHT22;44806;48.008;13.666;2023-04-03T06:26:50;4.80;99.90
59025;DHT22;44806;48.008;13.666;2023-04-03T06:29:18;4.90;99.90
59025;DHT22;44806;48.008;13.666;2023-04-03T06:31:45;4.90;99.90
59025;DHT22;44806;48.008;13.666;2023-04-03T06:34:12;4.90;99.90
59025;DHT22;44806;48.008;13.666;2023-04-03T06:36:41;5.00;99.90
59025;DHT22;44806;48.008;13.666;2023-04-03T06:39:09;5.00;99.90
59025;DHT22;44806;48.008;13.666;2023-04-03T06:41:40;5.10;99.90
59025;DHT22;44806;48.008;13.666;2023-04-03T06:44:07;5.10;99.90
59025;DHT22;44806;48.008;13.666;2023-04-03T06:46:37;5.20;99.90
59025;DHT22;44806;48.008;13.666;2023-04-03T06:49:05;5.20;99.90
59025;DHT22;44806;48.008;13.666;2023-04-03T06:51:33;5.20;99.90
59025;DHT22;44806;48.008;13.666;2023-04-03T06:54:01;5.20;99.90
59025;DHT22;44806;48.008;13.666;2023-04-03T06:56:28;5.20;99.90
59025;DHT22;44806;48.008;13.666;2023-04-03T06:58:57;5.30;99.90
59025;DHT22;44806;48.008;13.666;2023-04-03T07:01:25;5.30;99.90
59025;DHT22;44806;48.008;13.666;2023-04-03T07:03:53;5.40;99.90
59025;DHT22;44806;48.008;13.666;2023-04-03T07:06:20;5.40;99.90
59025;DHT22;44806;48.008;13.666;2023-04-03T07:08:48;5.50;99.90
59025;DHT22;44806;48.008;13.666;2023-04-03T07:11:15;5.50;99.90
59025;DHT22;44806;48.008;13.666;2023-04-03T07:13:42;5.50;99.90
59025;DHT22;44806;48.008;13.666;2023-04-03T07:16:10;5.60;99.90
59025;DHT22;44806;48.008;13.666;2023-04-03T07:18:37;5.50;99.90
59025;DHT22;44806;48.008;13.666;2023-04-03T07:21:05;5.50;99.90
59025;DHT22;44806;48.008;13.666;2023-04-03T07:23:32;5.50;99.90
59025;DHT22;44806;48.008;13.666;2023-04-03T07:25:59;5.50;99.90
59025;DHT22;44806;48.008;13.666;2023-04-03T07:28:27;5.60;99.90
59025;DHT22;44806;48.008;13.666;2023-04-03T07:31:00;5.70;99.90
59025;DHT22;44806;48.008;13.666;2023-04-03T07:33:28;5.70;99.90
59025;DHT22;44806;48.008;13.666;2023-04-03T07:35:56;5.70;99.90
59025;DHT22;44806;48.008;13.666;2023-04-03T07:38:24;5.80;99.90
59025;DHT22;44806;48.008;13.666;2023-04-03T07:40:51;5.80;99.90
59025;DHT22;44806;48.008;13.666;2023-04-03T07:43:20;5.90;99.90
59025;DHT22;44806;48.008;13.666;2023-04-03T07:45:47;5.80;99.90
59025;DHT22;44806;48.008;13.666;2023-04-03T07:48:16;5.70;99.90
59025;DHT22;44806;48.008;13.666;2023-04-03T07:50:45;5.80;99.90
59025;DHT22;44806;48.008;13.666;2023-04-03T07:53:12;6.00;99.90
59025;DHT22;44806;48.008;13.666;2023-04-03T07:55:40;6.10;99.90
59025;DHT22;44806;48.008;13.666;2023-04-03T07:58:09;6.10;99.90
59025;DHT22;44806;48.008;13.666;2023-04-03T08:00:37;6.10;99.90
59025;DHT22;44806;48.008;13.666;2023-04-03T08:03:04;6.20;99.90
59025;DHT22;44806;48.008;13.666;2023-04-03T08:05:31;6.30;99.90
59025;DHT22;44806;48.008;13.666;2023-04-03T08:07:59;6.40;99.90
59025;DHT22;44806;48.008;13.666;2023-04-03T08:10:26;6.30;99.90
59025;DHT22;44806;48.008;13.666;2023-04-03T08:12:53;6.40;99.90
59025;DHT22;44806;48.008;13.666;2023-04-03T08:15:20;6.40;99.90
59025;DHT22;44806;48.008;13.666;2023-04-03T08:17:47;6.50;99.90
59025;DHT22;44806;48.008;13.666;2023-04-03T08:20:14;6.50;99.90
59025;DHT22;44806;48.008;13.666;2023-04-03T08:22:41;6.50;99.90
59025;DHT22;44806;48.008;13.666;2023-04-03T08:25:09;6.40;99.90
59025;DHT22;44806;48.008;13.666;2023-04-03T08:27:36;6.50;99.90
59025;DHT22;44806;48.008;13.666;2023-04-03T08:30:04;6.50;99.90
59025;DHT22;44806;48.008;13.666;2023-04-03T08:32:33;6.60;99.90
59025;DHT22;44806;48.008;13.666;2023-04-03T08:35:00;6.60;99.90
59025;DHT22;44806;48.008;13.666;2023-04-03T08:37:27;6.80;99.90
59025;DHT22;44806;48.008;13.666;2023-04-03T08:39:54;6.80;99.90
59025;DHT22;44806;48.008;13.666;2023-04-03T08:42:35;6.80;99.90
59025;DHT22;44806;48.008;13.666;2023-04-03T08:45:10;6.70;98.50
59025;DHT22;44806;48.008;13.666;2023-04-03T08:47:40;6.60;96.60
59025;DHT22;44806;48.008;13.666;2023-04-03T08:50:12;6.60;97.40
59025;DHT22;44806;48.008;13.666;2023-04-03T08:52:42;6.60;95.40
59025;DHT22;44806;48.008;13.666;2023-04-03T08:55:21;6.70;97.00
59025;DHT22;44806;48.008;13.666;2023-04-03T08:57:53;6.80;97.00
59025;DHT22;44806;48.008;13.666;2023-04-03T09:00:25;6.90;95.30
59025;DHT22;44806;48.008;13.666;2023-04-03T09:02:55;7.00;96.20
59025;DHT22;44806;48.008;13.666;2023-04-03T09:05:32;7.00;98.90
59025;DHT22;44806;48.008;13.666;2023-04-03T09:08:07;6.90;99.90
59025;DHT22;44806;48.008;13.666;2023-04-03T09:10:39;7.00;99.90
59025;DHT22;44806;48.008;13.666;2023-04-03T09:13:13;6.90;99.90
59025;DHT22;44806;48.008;13.666;2023-04-03T09:15:46;7.00;99.90
59025;DHT22;44806;48.008;13.666;2023-04-03T09:18:16;6.70;99.90
59025;DHT22;44806;48.008;13.666;2023-04-03T09:20:49;6.60;99.90
59025;DHT22;44806;48.008;13.666;2023-04-03T09:23:26;6.70;99.90
59025;DHT22;44806;48.008;13.666;2023-04-03T09:26:00;6.60;99.90
59025;DHT22;44806;48.008;13.666;2023-04-03T09:28:32;6.40;99.90
59025;DHT22;44806;48.008;13.666;2023-04-03T09:31:05;6.10;99.90
59025;DHT22;44806;48.008;13.666;2023-04-03T09:33:39;6.00;99.90
59025;DHT22;44806;48.008;13.666;2023-04-03T09:36:06;5.90;99.90
59025;DHT22;44806;48.008;13.666;2023-04-03T09:38:33;5.80;99.90
59025;DHT22;44806;48.008;13.666;2023-04-03T09:41:05;5.80;99.90
59025;DHT22;44806;48.008;13.666;2023-04-03T09:43:35;5.90;99.90
59025;DHT22;44806;48.008;13.666;2023-04-03T09:46:25;5.60;99.90
59025;DHT22;44806;48.008;13.666;2023-04-03T09:48:55;5.60;99.90
59025;DHT22;44806;48.008;13.666;2023-04-03T09:51:25;5.60;99.90
59025;DHT22;44806;48.008;13.666;2023-04-03T09:53:54;5.90;99.90
59025;DHT22;44806;48.008;13.666;2023-04-03T09:56:24;6.10;99.90
59025;DHT22;44806;48.008;13.666;2023-04-03T09:59:08;6.20;99.90
59025;DHT22;44806;48.008;13.666;2023-04-03T10:01:43;6.30;99.90
59025;DHT22;44806;48.008;13.666;2023-04-03T10:04:13;6.40;99.90
59025;DHT22;44806;48.008;13.666;2023-04-03T10:06:42;6.50;99.90
59025;DHT22;44806;48.008;13.666;2023-04-03T10:09:19;6.60;99.90
59025;DHT22;44806;48.008;13.666;2023-04-03T10:12:02;6.80;99.90
59025;DHT22;44806;48.008;13.666;2023-04-03T10:14:32;6.90;99.90
59025;DHT22;44806;48.008;13.666;2023-04-03T10:17:12;7.00;99.90
59025;DHT22;44806;48.008;13.666;2023-04-03T10:19:41;7.20;99.90
59025;DHT22;44806;48.008;13.666;2023-04-03T10:22:18;7.30;99.90
59025;DHT22;44806;48.008;13.666;2023-04-03T10:24:56;7.00;98.70
59025;DHT22;44806;48.008;13.666;2023-04-03T10:27:37;7.00;99.90
59025;DHT22;44806;48.008;13.666;2023-04-03T10:30:19;7.00;99.90
59025;DHT22;44806;48.008;13.666;2023-04-03T10:32:57;7.10;98.50
59025;DHT22;44806;48.008;13.666;2023-04-03T10:35:35;7.20;99.90
59025;DHT22;44806;48.008;13.666;2023-04-03T10:38:10;7.40;99.90
59025;DHT22;44806;48.008;13.666;2023-04-03T10:40:45;7.40;99.60
59025;DHT22;44806;48.008;13.666;2023-04-03T10:43:20;7.30;97.70
59025;DHT22;44806;48.008;13.666;2023-04-03T10:45:57;7.30;97.10
59025;DHT22;44806;48.008;13.666;2023-04-03T10:48:40;7.00;96.20
59025;DHT22;44806;48.008;13.666;2023-04-03T10:51:16;7.10;96.90
59025;DHT22;44806;48.008;13.666;2023-04-03T10:53:55;7.10;97.70
59025;DHT22;44806;48.008;13.666;2023-04-03T10:56:31;7.10;96.50
59025;DHT22;44806;48.008;13.666;2023-04-03T10:59:07;7.20;98.00
59025;DHT22;44806;48.008;13.666;2023-04-03T11:01:41;7.20;98.10
59025;DHT22;44806;48.008;13.666;2023-04-03T11:04:11;7.00;96.50
59025;DHT22;44806;48.008;13.666;2023-04-03T11:06:42;7.00;96.20
59025;DHT22;44806;48.008;13.666;2023-04-03T11:09:19;7.10;98.40
59025;DHT22;44806;48.008;13.666;2023-04-03T11:11:47;7.10;97.00
59025;DHT22;44806;48.008;13.666;2023-04-03T11:14:22;7.10;99.00
59025;DHT22;44806;48.008;13.666;2023-04-03T11:17:01;7.20;98.70
59025;DHT22;44806;48.008;13.666;2023-04-03T11:19:35;7.10;97.20
59025;DHT22;44806;48.008;13.666;2023-04-03T11:22:08;7.20;97.20
59025;DHT22;44806;48.008;13.666;2023-04-03T11:24:38;7.20;98.00
59025;DHT22;44806;48.008;13.666;2023-04-03T11:27:15;7.10;96.60
59025;DHT22;44806;48.008;13.666;2023-04-03T11:29:43;7.00;96.20
59025;DHT22;44806;48.008;13.666;2023-04-03T11:32:27;7.00;95.60
59025;DHT22;44806;48.008;13.666;2023-04-03T11:35:01;7.00;96.10
59025;DHT22;44806;48.008;13.666;2023-04-03T11:37:33;7.00;95.90
59025;DHT22;44806;48.008;13.666;2023-04-03T11:40:04;7.00;98.30
59025;DHT22;44806;48.008;13.666;2023-04-03T11:42:37;7.00;97.40
59025;DHT22;44806;48.008;13.666;2023-04-03T11:45:29;7.10;98.80
59025;DHT22;44806;48.008;13.666;2023-04-03T11:48:00;7.10;97.00
59025;DHT22;44806;48.008;13.666;2023-04-03T11:50:42;7.00;99.20
59025;DHT22;44806;48.008;13.666;2023-04-03T11:53:34;7.10;99.10
59025;DHT22;44806;48.008;13.666;2023-04-03T11:56:30;7.30;99.90
59025;DHT22;44806;48.008;13.666;2023-04-03T11:59:22;7.30;97.70
59025;DHT22;44806;48.008;13.666;2023-04-03T12:01:51;7.20;98.10
59025;DHT22;44806;48.008;13.666;2023-04-03T12:04:19;7.30;98.20
59025;DHT22;44806;48.008;13.666;2023-04-03T12:07:12;7.20;96.50
59025;DHT22;44806;48.008;13.666;2023-04-03T12:10:00;7.30;99.90
59025;DHT22;44806;48.008;13.666;2023-04-03T12:12:35;7.50;99.90
59025;DHT22;44806;48.008;13.666;2023-04-03T12:15:22;7.50;97.90
59025;DHT22;44806;48.008;13.666;2023-04-03T12:17:50;7.40;98.60
59025;DHT22;44806;48.008;13.666;2023-04-03T12:23:30;7.40;94.90
59025;DHT22;44806;48.008;13.666;2023-04-03T12:26:19;7.40;97.70
59025;DHT22;44806;48.008;13.666;2023-04-03T12:28:50;7.50;96.80
59025;DHT22;44806;48.008;13.666;2023-04-03T12:31:18;7.60;97.10
59025;DHT22;44806;48.008;13.666;2023-04-03T12:34:00;7.80;99.50
59025;DHT22;44806;48.008;13.666;2023-04-03T12:36:37;8.00;98.80
59025;DHT22;44806;48.008;13.666;2023-04-03T12:42:40;8.30;98.20
59025;DHT22;44806;48.008;13.666;2023-04-03T12:45:16;8.40;96.80
59025;DHT22;44806;48.008;13.666;2023-04-03T12:47:48;8.50;95.20
59025;DHT22;44806;48.008;13.666;2023-04-03T12:50:22;8.40;94.40
59025;DHT22;44806;48.008;13.666;2023-04-03T12:52:54;8.40;94.80
59025;DHT22;44806;48.008;13.666;2023-04-03T12:55:23;8.40;95.60
59025;DHT22;44806;48.008;13.666;2023-04-03T12:57:50;8.40;94.90
59025;DHT22;44806;48.008;13.666;2023-04-03T13:00:31;8.40;94.90
59025;DHT22;44806;48.008;13.666;2023-04-03T13:03:00;8.40;95.10
59025;DHT22;44806;48.008;13.666;2023-04-03T13:05:28;8.30;94.20
59025;DHT22;44806;48.008;13.666;2023-04-03T13:07:59;8.30;93.60
59025;DHT22;44806;48.008;13.666;2023-04-03T13:10:29;8.30;96.50
59025;DHT22;44806;48.008;13.666;2023-04-03T13:12:58;8.30;95.90
59025;DHT22;44806;48.008;13.666;2023-04-03T13:15:30;8.20;93.60
59025;DHT22;44806;48.008;13.666;2023-04-03T13:18:20;8.10;95.20
59025;DHT22;44806;48.008;13.666;2023-04-03T13:20:48;7.70;94.80
59025;DHT22;44806;48.008;13.666;2023-04-03T13:23:17;7.60;97.90
59025;DHT22;44806;48.008;13.666;2023-04-03T13:25:46;7.70;98.00
59025;DHT22;44806;48.008;13.666;2023-04-03T13:28:17;7.80;97.90
59025;DHT22;44806;48.008;13.666;2023-04-03T13:30:59;7.80;98.20
59025;DHT22;44806;48.008;13.666;2023-04-03T13:33:30;7.90;98.30
59025;DHT22;44806;48.008;13.666;2023-04-03T13:36:02;8.00;97.20
59025;DHT22;44806;48.008;13.666;2023-04-03T13:38:30;8.00;95.80
59025;DHT22;44806;48.008;13.666;2023-04-03T13:41:01;8.00;96.20
59025;DHT22;44806;48.008;13.666;2023-04-03T13:43:31;7.90;95.30
59025;DHT22;44806;48.008;13.666;2023-04-03T13:46:24;7.70;93.20
59025;DHT22;44806;48.008;13.666;2023-04-03T13:48:53;7.70;91.60
59025;DHT22;44806;48.008;13.666;2023-04-03T13:51:26;7.40;93.50
59025;DHT22;44806;48.008;13.666;2023-04-03T13:53:55;7.60;95.80
59025;DHT22;44806;48.008;13.666;2023-04-03T13:56:27;7.70;96.40
59025;DHT22;44806;48.008;13.666;2023-04-03T13:59:04;7.70;95.00
59025;DHT22;44806;48.008;13.666;2023-04-03T14:01:41;7.80;94.40
59025;DHT22;44806;48.008;13.666;2023-04-03T14:04:15;7.90;93.80
59025;DHT22;44806;48.008;13.666;2023-04-03T14:06:42;8.00;95.00
59025;DHT22;44806;48.008;13.666;2023-04-03T14:09:09;8.10;93.30
59025;DHT22;44806;48.008;13.666;2023-04-03T14:11:36;8.10;92.60
59025;DHT22;44806;48.008;13.666;2023-04-03T14:14:10;8.10;90.90
59025;DHT22;44806;48.008;13.666;2023-04-03T14:16:41;7.90;92.20
59025;DHT22;44806;48.008;13.666;2023-04-03T14:19:17;7.90;92.60
59025;DHT22;44806;48.008;13.666;2023-04-03T14:21:44;7.90;91.20
59025;DHT22;44806;48.008;13.666;2023-04-03T14:24:11;7.90;91.50
59025;DHT22;44806;48.008;13.666;2023-04-03T14:26:38;7.90;92.70
59025;DHT22;44806;48.008;13.666;2023-04-03T14:29:05;8.00;93.50
59025;DHT22;44806;48.008;13.666;2023-04-03T14:31:32;8.10;94.10
59025;DHT22;44806;48.008;13.666;2023-04-03T14:34:00;8.20;92.80
59025;DHT22;44806;48.008;13.666;2023-04-03T14:36:28;8.20;94.00
59025;DHT22;44806;48.008;13.666;2023-04-03T14:38:57;8.20;93.30
59025;DHT22;44806;48.008;13.666;2023-04-03T14:41:25;8.00;91.50
59025;DHT22;44806;48.008;13.666;2023-04-03T14:43:53;8.00;92.70
59025;DHT22;44806;48.008;13.666;2023-04-03T14:46:23;8.00;94.00
59025;DHT22;44806;48.008;13.666;2023-04-03T14:48:52;7.90;93.10
59025;DHT22;44806;48.008;13.666;2023-04-03T14:51:20;8.00;93.50
59025;DHT22;44806;48.008;13.666;2023-04-03T14:53:47;7.90;93.00
59025;DHT22;44806;48.008;13.666;2023-04-03T14:56:18;7.90;93.00
59025;DHT22;44806;48.008;13.666;2023-04-03T14:58:47;8.00;94.50
59025;DHT22;44806;48.008;13.666;2023-04-03T15:01:16;8.00;94.50
59025;DHT22;44806;48.008;13.666;2023-04-03T15:03:43;8.00;93.60
59025;DHT22;44806;48.008;13.666;2023-04-03T15:06:12;8.00;93.30
59025;DHT22;44806;48.008;13.666;2023-04-03T15:08:41;8.00;93.10
59025;DHT22;44806;48.008;13.666;2023-04-03T15:11:10;8.00;92.90
59025;DHT22;44806;48.008;13.666;2023-04-03T15:13:37;8.00;93.00
59025;DHT22;44806;48.008;13.666;2023-04-03T15:16:05;8.20;94.00
59025;DHT22;44806;48.008;13.666;2023-04-03T15:18:38;8.00;92.40
59025;DHT22;44806;48.008;13.666;2023-04-03T15:21:05;8.00;92.50
59025;DHT22;44806;48.008;13.666;2023-04-03T15:23:32;7.90;93.90
59025;DHT22;44806;48.008;13.666;2023-04-03T15:26:01;7.90;92.60
59025;DHT22;44806;48.008;13.666;2023-04-03T15:28:30;7.90;92.80
59025;DHT22;44806;48.008;13.666;2023-04-03T15:30:59;7.90;93.10
59025;DHT22;44806;48.008;13.666;2023-04-03T15:33:26;7.90;92.40
59025;DHT22;44806;48.008;13.666;2023-04-03T15:35:53;7.80;92.60
59025;DHT22;44806;48.008;13.666;2023-04-03T15:38:21;7.80;92.10
59025;DHT22;44806;48.008;13.666;2023-04-03T15:40:48;7.60;91.60
59025;DHT22;44806;48.008;13.666;2023-04-03T15:43:16;7.50;92.30
59025;DHT22;44806;48.008;13.666;2023-04-03T15:45:44;7.50;91.30
59025;DHT22;44806;48.008;13.666;2023-04-03T15:48:12;7.40;92.60
59025;DHT22;44806;48.008;13.666;2023-04-03T15:50:39;7.40;92.10
59025;DHT22;44806;48.008;13.666;2023-04-03T15:53:06;7.40;91.90